Portada
METAR-TAF:

METAR-TAF

Aeroports :

Saglek Bay, Terranova i Labrador, Canadà

latitud: 58-20N, longitud: 062-35W, altitud: 483 m

Observació

L'informe es va fer fa 28 minuts, a les 03:00 UTC
Vent 30 kt del Oest/Nord-Oest
Temperatura -7°C
Humitat 79%
Pressió 1006 hPa
Cel cobert a una alçada de 7000 ft

METAR: CWZZ 270300Z AUTO 30030KT ////SM OVC070 M07/M10 A2972

Hora: 00:28 (03:28 UTC)


TAF: manca

Observacions i pronòstics meteorològics de més de 4000 aeroports (METAR i TAF).

Les estacions disponibles són els punts grocs i vermells al mapa.

Posi el ratolí al punt desitjat per veure el nom de l'estació.

Feu clic per veure les observacions i els pronòstics meteorològics.

Per canviar el mapa: feu clic els botons verds amb una creu de color negre per apropar; al botó verd amb un guió per allunyar la imatge; o en les fletxes verdes per a mapes adjacents.


METAR-TAF: